Pink Coral — 9HPY9 — position and weather

sailwx.info

Track history (hours):
 
Tides and Currents Weather Stations Pressure Air Temp Water Temp Dewpoint Dewpoint Depression Visibility Wind Speed Wind Dir Waves Ship Positions

Pink Coral

Last reported at 2014-Oct-25 10:33 UTC. Time now 2014-Oct-25 11:16 UTC.
Position N 44°28' E 037°41'.

Length 183 m; draft 9.5 m.

Type: Ship (hazmat cat A). MMSI: 249344000.

Date/timePositionNaut miles runAvg speedWind from/ knotsBaromVisibWave heightAir tempDewpointWater temp
2014-Oct-25 10:33N 44°28' E 037°41'2 1.9
2014-Oct-25 09:33N 44°30' E 037°42'2 1.8
2014-Oct-25 08:33N 44°31' E 037°44'2 2.1
2014-Oct-25 07:33N 44°33' E 037°46'7 7.1
2014-Oct-25 06:33N 44°26' E 037°42'1 1.5
2014-Oct-25 05:33N 44°28' E 037°42'1 1.5
2014-Oct-25 04:33N 44°29' E 037°43'1 1.4
2014-Oct-25 03:33N 44°30' E 037°44'1 1.3
2014-Oct-25 02:33N 44°31' E 037°45'1 1.4
2014-Oct-25 01:33N 44°32' E 037°47'1 0.9
2014-Oct-25 00:33N 44°32' E 037°48'6 5.7
2014-Oct-24 23:33N 44°27' E 037°44'1 1.4
2014-Oct-24 22:33N 44°28' E 037°44'1 1.5
2014-Oct-24 21:33N 44°30' E 037°46'1 1.4
2014-Oct-24 20:33N 44°31' E 037°47'2 1.6
2014-Oct-24 19:33N 44°32' E 037°48'6 5.6
2014-Oct-24 18:33N 44°27' E 037°44'1 1.4
2014-Oct-24 17:33N 44°29' E 037°44'2 1.6
2014-Oct-24 16:33N 44°30' E 037°46'1 1.5
2014-Oct-24 15:33N 44°31' E 037°47'2 1.8
2014-Oct-24 14:33N 44°31' E 037°45'9 9.5
2014-Oct-24 13:33N 44°31' E 037°31'1 1.3
2014-Oct-24 12:33N 44°30' E 037°33'2 2.5
2014-Oct-24 11:33N 44°30' E 037°36'2 2.5
2014-Oct-24 10:33N 44°30' E 037°40'2 2.4
2014-Oct-24 09:33N 44°28' E 037°42'1110.7
2014-Oct-24 08:33N 44°38' E 037°49'5 4.7
2014-Oct-24 07:31N 44°43' E 037°50'0 0.0
2014-Oct-24 06:31N 44°43' E 037°50'0 0.0
2014-Oct-24 04:31N 44°43' E 037°50'0 0.0
2014-Oct-24 03:31N 44°43' E 037°50'0 0.0
2014-Oct-24 02:31N 44°43' E 037°50'0 0.0
2014-Oct-24 01:31N 44°43' E 037°50'0 0.0
2014-Oct-24 00:29N 44°43' E 037°50'0 0.0
2014-Oct-23 23:32N 44°43' E 037°50'0 0.0
2014-Oct-23 22:32N 44°43' E 037°50'0 0.0
2014-Oct-23 21:31N 44°43' E 037°50'0 0.0
2014-Oct-23 20:31N 44°43' E 037°50'0 0.0
2014-Oct-23 19:31N 44°43' E 037°50'0 0.0
2014-Oct-23 18:31N 44°43' E 037°50'0 0.0
2014-Oct-23 17:31N 44°43' E 037°50'0 0.0
2014-Oct-23 16:31N 44°43' E 037°50'0 0.0
2014-Oct-23 15:28N 44°43' E 037°50'0 0.0
2014-Oct-23 14:31N 44°43' E 037°50'0 0.0
2014-Oct-23 13:31N 44°43' E 037°50'0 0.0
2014-Oct-23 12:31N 44°43' E 037°50'0 0.0
2014-Oct-23 11:31N 44°43' E 037°50'0 0.0
2014-Oct-23 10:31N 44°43' E 037°50'0 0.0
2014-Oct-23 09:31N 44°43' E 037°50'4 4.3
2014-Oct-23 08:33N 44°39' E 037°51'8 8.3
2014-Oct-23 07:33N 44°30' E 037°48'1 0.6
2014-Oct-23 06:33N 44°31' E 037°49'1111.1
2014-Oct-23 05:33N 44°26' E 037°35'1212.1
2014-Oct-23 04:33N 44°21' E 037°20'4613.3
2014-Oct-23 01:04N 43°59' E 036°22'1013.4
2014-Oct-23 00:20N 43°55' E 036°10'2513.5
2014-Oct-22 22:29N 43°43' E 035°39'33713.5
2014-Oct-21 21:33N 41°02' E 029°00'9 9.4
2014-Oct-21 20:33N 40°53' E 028°55'6 5.9
2014-Oct-21 19:33N 40°47' E 028°53'1 0.7
2014-Oct-21 18:33N 40°47' E 028°53'1 0.8
2014-Oct-21 17:33N 40°46' E 028°54'1010.0
2014-Oct-21 16:33N 40°45' E 029°07'1312.3
2014-Oct-21 15:32N 40°45' E 029°24'10 9.5
2014-Oct-21 14:32N 40°45' E 029°37'2 0.1
2014-Oct-20 04:31N 40°45' E 029°33'9 9.0
2014-Oct-20 03:33N 40°43' E 029°22'1212.0
2014-Oct-20 02:33N 40°44' E 029°06'1312.7
2014-Oct-20 01:33N 40°44' E 028°50'1312.4
2014-Oct-20 00:30N 40°44' E 028°32'7912.5
2014-Oct-19 18:13N 40°28' E 026°51'69 3.0
2014-Oct-18 19:28N 39°41' E 025°45'5313.5
2014-Oct-18 15:30N 38°54' E 025°14'4212.6
2014-Oct-18 12:09N 38°16' E 024°50'3413.2
2014-Oct-18 09:33N 37°48' E 024°26'1814.4
2014-Oct-18 08:19N 37°35' E 024°10'1113.8
2014-Oct-18 07:33N 37°26' E 024°03'1514.0
2014-Oct-18 06:29N 37°13' E 023°53'1313.9
2014-Oct-18 05:33N 37°02' E 023°44'1413.8
2014-Oct-18 04:33N 36°50' E 023°35'1813.8
2014-Oct-18 03:14N 36°35' E 023°23'913.9
2014-Oct-18 02:33N 36°27' E 023°17'1413.2
2014-Oct-18 01:28N 36°24' E 022°59'  
Track history (hours):
 
Tides and Currents Weather Stations Pressure Air Temp Water Temp Dewpoint Dewpoint Depression Visibility Wind Speed Wind Dir Waves Ship Positions

Pink Coral

Last reported at 2014-Oct-25 10:33 UTC. Time now 2014-Oct-25 11:16 UTC.
Position N 44°28' E 037°41'.

Length 183 m; draft 9.5 m.

Type: Ship (hazmat cat A). MMSI: 249344000.

Date/timePositionNaut miles runAvg speedWind from/ knotsBaromVisibWave heightAir tempDewpointWater temp
2014-Oct-25 10:33N 44°28' E 037°41'2 1.9
2014-Oct-25 09:33N 44°30' E 037°42'2 1.8
2014-Oct-25 08:33N 44°31' E 037°44'2 2.1
2014-Oct-25 07:33N 44°33' E 037°46'7 7.1
2014-Oct-25 06:33N 44°26' E 037°42'1 1.5
2014-Oct-25 05:33N 44°28' E 037°42'1 1.5
2014-Oct-25 04:33N 44°29' E 037°43'1 1.4
2014-Oct-25 03:33N 44°30' E 037°44'1 1.3
2014-Oct-25 02:33N 44°31' E 037°45'1 1.4
2014-Oct-25 01:33N 44°32' E 037°47'1 0.9
2014-Oct-25 00:33N 44°32' E 037°48'6 5.7
2014-Oct-24 23:33N 44°27' E 037°44'1 1.4
2014-Oct-24 22:33N 44°28' E 037°44'1 1.5
2014-Oct-24 21:33N 44°30' E 037°46'1 1.4
2014-Oct-24 20:33N 44°31' E 037°47'2 1.6
2014-Oct-24 19:33N 44°32' E 037°48'6 5.6
2014-Oct-24 18:33N 44°27' E 037°44'1 1.4
2014-Oct-24 17:33N 44°29' E 037°44'2 1.6
2014-Oct-24 16:33N 44°30' E 037°46'1 1.5
2014-Oct-24 15:33N 44°31' E 037°47'2 1.8
2014-Oct-24 14:33N 44°31' E 037°45'9 9.5
2014-Oct-24 13:33N 44°31' E 037°31'1 1.3
2014-Oct-24 12:33N 44°30' E 037°33'2 2.5
2014-Oct-24 11:33N 44°30' E 037°36'2 2.5
2014-Oct-24 10:33N 44°30' E 037°40'2 2.4
2014-Oct-24 09:33N 44°28' E 037°42'1110.7
2014-Oct-24 08:33N 44°38' E 037°49'5 4.7
2014-Oct-24 07:31N 44°43' E 037°50'0 0.0
2014-Oct-24 06:31N 44°43' E 037°50'0 0.0
2014-Oct-24 04:31N 44°43' E 037°50'0 0.0
2014-Oct-24 03:31N 44°43' E 037°50'0 0.0
2014-Oct-24 02:31N 44°43' E 037°50'0 0.0
2014-Oct-24 01:31N 44°43' E 037°50'0 0.0
2014-Oct-24 00:29N 44°43' E 037°50'0 0.0
2014-Oct-23 23:32N 44°43' E 037°50'0 0.0
2014-Oct-23 22:32N 44°43' E 037°50'0 0.0
2014-Oct-23 21:31N 44°43' E 037°50'0 0.0
2014-Oct-23 20:31N 44°43' E 037°50'0 0.0
2014-Oct-23 19:31N 44°43' E 037°50'0 0.0
2014-Oct-23 18:31N 44°43' E 037°50'0 0.0
2014-Oct-23 17:31N 44°43' E 037°50'0 0.0
2014-Oct-23 16:31N 44°43' E 037°50'0 0.0
2014-Oct-23 15:28N 44°43' E 037°50'0 0.0
2014-Oct-23 14:31N 44°43' E 037°50'0 0.0
2014-Oct-23 13:31N 44°43' E 037°50'0 0.0
2014-Oct-23 12:31N 44°43' E 037°50'0 0.0
2014-Oct-23 11:31N 44°43' E 037°50'0 0.0
2014-Oct-23 10:31N 44°43' E 037°50'0 0.0
2014-Oct-23 09:31N 44°43' E 037°50'4 4.3
2014-Oct-23 08:33N 44°39' E 037°51'8 8.3
2014-Oct-23 07:33N 44°30' E 037°48'1 0.6
2014-Oct-23 06:33N 44°31' E 037°49'1111.1
2014-Oct-23 05:33N 44°26' E 037°35'1212.1
2014-Oct-23 04:33N 44°21' E 037°20'4613.3
2014-Oct-23 01:04N 43°59' E 036°22'1013.4
2014-Oct-23 00:20N 43°55' E 036°10'2513.5
2014-Oct-22 22:29N 43°43' E 035°39'33713.5
2014-Oct-21 21:33N 41°02' E 029°00'9 9.4
2014-Oct-21 20:33N 40°53' E 028°55'6 5.9
2014-Oct-21 19:33N 40°47' E 028°53'1 0.7
2014-Oct-21 18:33N 40°47' E 028°53'1 0.8
2014-Oct-21 17:33N 40°46' E 028°54'1010.0
2014-Oct-21 16:33N 40°45' E 029°07'1312.3
2014-Oct-21 15:32N 40°45' E 029°24'10 9.5
2014-Oct-21 14:32N 40°45' E 029°37'2 0.1
2014-Oct-20 04:31N 40°45' E 029°33'9 9.0
2014-Oct-20 03:33N 40°43' E 029°22'1212.0
2014-Oct-20 02:33N 40°44' E 029°06'1312.7
2014-Oct-20 01:33N 40°44' E 028°50'1312.4
2014-Oct-20 00:30N 40°44' E 028°32'7912.5
2014-Oct-19 18:13N 40°28' E 026°51'69 3.0
2014-Oct-18 19:28N 39°41' E 025°45'5313.5
2014-Oct-18 15:30N 38°54' E 025°14'4212.6
2014-Oct-18 12:09N 38°16' E 024°50'3413.2
2014-Oct-18 09:33N 37°48' E 024°26'1814.4
2014-Oct-18 08:19N 37°35' E 024°10'1113.8
2014-Oct-18 07:33N 37°26' E 024°03'1514.0
2014-Oct-18 06:29N 37°13' E 023°53'1313.9
2014-Oct-18 05:33N 37°02' E 023°44'1413.8
2014-Oct-18 04:33N 36°50' E 023°35'1813.8
2014-Oct-18 03:14N 36°35' E 023°23'913.9
2014-Oct-18 02:33N 36°27' E 023°17'1413.2
2014-Oct-18 01:28N 36°24' E 022°59'  

Dump ship's entire track history